createdAt,value
2018-04-20T00:00:39.878Z,13.13
2018-04-20T00:01:39.906Z,13.23
2018-04-20T00:02:39.932Z,13.23
2018-04-20T00:03:39.959Z,13.23
2018-04-20T00:04:40.030Z,13.23
2018-04-20T00:05:40.013Z,13.23
2018-04-20T00:06:40.040Z,13.13
2018-04-20T00:07:40.066Z,13.42
2018-04-20T00:08:40.094Z,13.42
2018-04-20T00:09:40.121Z,13.42
2018-04-20T00:10:40.148Z,13.42
2018-04-20T00:11:40.174Z,13.42
2018-04-20T00:12:40.202Z,13.42
2018-04-20T00:13:40.229Z,13.42
2018-04-20T00:14:40.256Z,13.42
2018-04-20T00:15:40.281Z,13.42
2018-04-20T00:16:40.309Z,13.42
2018-04-20T00:17:40.337Z,13.42
2018-04-20T00:18:40.364Z,13.41
2018-04-20T00:19:40.393Z,13.42
2018-04-20T00:20:40.416Z,13.42
2018-04-20T00:21:40.443Z,13.42
2018-04-20T00:22:40.483Z,13.32
2018-04-20T00:23:40.497Z,13.32
2018-04-20T00:24:40.529Z,13.42
2018-04-20T00:25:40.552Z,13.22
2018-04-20T00:26:40.579Z,13.42
2018-04-20T00:27:40.605Z,13.41
2018-04-20T00:28:40.645Z,13.42
2018-04-20T00:29:40.659Z,13.42
2018-04-20T00:30:40.687Z,13.42
2018-04-20T00:31:40.713Z,13.42
2018-04-20T00:32:40.739Z,13.41
2018-04-20T00:33:40.767Z,13.13
2018-04-20T00:34:40.796Z,13.42
2018-04-20T00:35:40.823Z,13.41
2018-04-20T00:36:40.847Z,13.42
2018-04-20T00:37:40.893Z,13.42
2018-04-20T00:38:40.902Z,13.13
2018-04-20T00:39:40.927Z,13.32
2018-04-20T00:40:40.954Z,13.32
2018-04-20T00:41:40.982Z,13.23
2018-04-20T00:42:41.009Z,13.22
2018-04-20T00:43:41.038Z,13.32
2018-04-20T00:44:41.098Z,13.32
2018-04-20T00:45:41.106Z,13.42
2018-04-20T00:46:41.116Z,13.32
2018-04-20T00:47:41.155Z,13.32
2018-04-20T00:48:41.171Z,13.23
2018-04-20T00:49:41.224Z,13.42
2018-04-20T00:50:41.225Z,13.42
2018-04-20T00:51:41.251Z,13.32
2018-04-20T00:52:41.277Z,13.42
2018-04-20T00:53:41.348Z,13.32
2018-04-20T00:54:41.332Z,13.32
2018-04-20T00:55:41.358Z,13.32
2018-04-20T00:56:41.385Z,13.32
2018-04-20T00:57:41.412Z,13.23
2018-04-20T00:58:41.443Z,13.32
2018-04-20T00:59:41.480Z,13.23
2018-04-20T01:00:41.526Z,13.42
2018-04-20T01:01:41.520Z,13.32
2018-04-20T01:02:41.547Z,13.32
2018-04-20T01:03:41.573Z,13.42
2018-04-20T01:04:41.622Z,13.23
2018-04-20T01:05:41.656Z,13.32
2018-04-20T01:06:41.654Z,13.22
2018-04-20T01:07:41.680Z,13.32
2018-04-20T01:08:41.708Z,13.32
2018-04-20T01:09:41.734Z,13.42
2018-04-20T01:10:41.762Z,13.42
2018-04-20T01:11:41.787Z,13.42
2018-04-20T01:12:41.814Z,13.41
2018-04-20T01:13:41.841Z,13.32
2018-04-20T01:14:41.868Z,13.42
2018-04-20T01:15:41.898Z,13.22
2018-04-20T01:16:41.929Z,12.93
2018-04-20T01:17:41.950Z,13.32
2018-04-20T01:18:41.975Z,13.22
2018-04-20T01:19:42.023Z,13.32
2018-04-20T01:20:42.028Z,13.02
2018-04-20T01:21:42.055Z,13.13
2018-04-20T01:22:42.082Z,13.03
2018-04-20T01:23:42.109Z,13.32
2018-04-20T01:24:42.135Z,13.02
2018-04-20T01:25:42.165Z,13.32
2018-04-20T01:26:42.190Z,13.13
2018-04-20T01:27:42.216Z,13.23
2018-04-20T01:28:42.243Z,13.23
2018-04-20T01:29:42.270Z,13.03
2018-04-20T01:30:42.298Z,13.22
2018-04-20T01:31:42.359Z,13.12
2018-04-20T01:32:42.350Z,13.13
2018-04-20T01:33:42.377Z,13.23
2018-04-20T01:34:42.404Z,13.12
2018-04-20T01:35:42.433Z,13.23
2018-04-20T01:36:42.457Z,13.13
2018-04-20T01:37:42.485Z,13.22
2018-04-20T01:38:42.550Z,13.23
2018-04-20T01:39:42.538Z,13.23
2018-04-20T01:40:42.601Z,13.13
2018-04-20T01:41:42.592Z,13.23
2018-04-20T01:42:42.619Z,13.23
2018-04-20T01:43:42.645Z,13.23
2018-04-20T01:44:42.672Z,13.13
2018-04-20T01:45:42.699Z,13.23
2018-04-20T01:46:42.726Z,13.22
2018-04-20T01:47:42.752Z,13.23
2018-04-20T01:48:42.779Z,13.32
2018-04-20T01:49:42.806Z,13.13
2018-04-20T01:50:42.837Z,13.23
2018-04-20T01:51:42.861Z,13.23
2018-04-20T01:52:42.887Z,13.13
2018-04-20T01:53:42.947Z,13.23
2018-04-20T01:54:42.942Z,13.22
2018-04-20T01:55:43.011Z,13.12
2018-04-20T01:56:42.994Z,13.23
2018-04-20T01:57:43.021Z,13.22
2018-04-20T01:58:43.048Z,13.13
2018-04-20T01:59:43.107Z,13.23
2018-04-20T02:00:43.134Z,13.32
2018-04-20T02:01:43.129Z,13.32
2018-04-20T02:02:43.156Z,13.23
2018-04-20T02:03:43.182Z,13.32
2018-04-20T02:04:43.209Z,13.13
2018-04-20T02:05:43.236Z,13.22
2018-04-20T02:06:43.263Z,13.23
2018-04-20T02:07:43.290Z,13.23
2018-04-20T02:08:43.345Z,13.23
2018-04-20T02:09:43.345Z,13.32
2018-04-20T02:10:43.378Z,13.32
2018-04-20T02:11:43.398Z,13.23
2018-04-20T02:12:43.447Z,13.23
2018-04-20T02:13:43.453Z,13.23
2018-04-20T02:14:43.483Z,13.23
2018-04-20T02:15:43.551Z,13.23
2018-04-20T02:16:43.535Z,13.13
2018-04-20T02:17:43.562Z,13.23
2018-04-20T02:18:43.588Z,13.23
2018-04-20T02:19:43.614Z,13.22
2018-04-20T02:20:43.668Z,13.23
2018-04-20T02:21:43.669Z,13.23
2018-04-20T02:22:43.711Z,13.23
2018-04-20T02:23:43.722Z,13.12
2018-04-20T02:24:43.757Z,13.22
2018-04-20T02:25:43.776Z,13.23
2018-04-20T02:26:43.804Z,13.12
2018-04-20T02:27:43.830Z,13.13
2018-04-20T02:28:43.857Z,13.12
2018-04-20T02:29:43.883Z,13.22
2018-04-20T02:30:43.911Z,13.22
2018-04-20T02:31:43.937Z,13.23
2018-04-20T02:32:43.965Z,13.13
2018-04-20T02:33:43.992Z,13.13
2018-04-20T02:34:44.019Z,13.23
2018-04-20T02:35:44.045Z,13.23
2018-04-20T02:36:44.108Z,13.32
2018-04-20T02:37:44.099Z,13.32
2018-04-20T02:38:44.126Z,13.22
2018-04-20T02:39:44.152Z,13.42
2018-04-20T02:40:44.182Z,13.22
2018-04-20T02:41:44.207Z,13.32
2018-04-20T02:42:44.236Z,13.41
2018-04-20T02:43:44.262Z,13.13
2018-04-20T02:44:44.291Z,13.32
2018-04-20T02:45:44.317Z,13.23
2018-04-20T02:46:44.341Z,13.13
2018-04-20T02:47:44.372Z,13.32
2018-04-20T02:48:44.405Z,13.32
2018-04-20T02:49:44.422Z,13.42
2018-04-20T02:50:44.450Z,13.22
2018-04-20T02:51:44.479Z,13.23
2018-04-20T02:52:44.502Z,13.42
2018-04-20T02:53:44.530Z,13.41
2018-04-20T02:54:44.588Z,13.41
2018-04-20T02:55:44.584Z,13.41
2018-04-20T02:56:44.611Z,13.42
2018-04-20T02:57:44.640Z,13.51
2018-04-20T02:58:44.666Z,13.51
2018-04-20T02:59:44.692Z,13.51
2018-04-20T03:00:44.728Z,13.42
2018-04-20T03:01:44.745Z,13.42
2018-04-20T03:02:44.772Z,13.32
2018-04-20T03:03:44.799Z,13.41
2018-04-20T03:04:44.825Z,13.32
2018-04-20T03:05:44.851Z,13.51
2018-04-20T03:06:44.879Z,13.41
2018-04-20T03:07:44.905Z,13.32
2018-04-20T03:08:44.932Z,13.42
2018-04-20T03:09:44.960Z,13.32
2018-04-20T03:10:44.987Z,13.42
2018-04-20T03:11:45.013Z,13.42
2018-04-20T03:12:45.039Z,13.51
2018-04-20T03:13:45.067Z,13.13
2018-04-20T03:14:45.096Z,13.32
2018-04-20T03:15:45.119Z,13.42
2018-04-20T03:16:45.147Z,13.51
2018-04-20T03:17:45.174Z,13.42
2018-04-20T03:18:45.201Z,13.42
2018-04-20T03:19:45.227Z,13.51
2018-04-20T03:20:45.254Z,13.42
2018-04-20T03:21:45.281Z,13.23
2018-04-20T03:22:45.309Z,13.51
2018-04-20T03:23:45.342Z,13.42
2018-04-20T03:24:45.362Z,13.32
2018-04-20T03:25:45.389Z,13.23
2018-04-20T03:26:45.416Z,13.32
2018-04-20T03:27:45.443Z,13.42
2018-04-20T03:28:45.472Z,13.51
2018-04-20T03:29:45.497Z,13.51
2018-04-20T03:30:45.526Z,13.32
2018-04-20T03:31:45.550Z,13.32
2018-04-20T03:32:45.579Z,13.42
2018-04-20T03:33:45.604Z,13.42
2018-04-20T03:34:45.632Z,13.42
2018-04-20T03:35:45.694Z,13.32
2018-04-20T03:36:45.686Z,13.42
2018-04-20T03:37:45.725Z,13.51
2018-04-20T03:38:45.740Z,13.42
2018-04-20T03:39:45.766Z,13.42
2018-04-20T03:40:45.814Z,13.42
2018-04-20T03:41:45.820Z,13.42
2018-04-20T03:42:45.847Z,13.42
2018-04-20T03:43:45.873Z,13.13
2018-04-20T03:44:45.900Z,13.23
2018-04-20T03:45:45.928Z,13.42
2018-04-20T03:46:45.956Z,13.32
2018-04-20T03:47:45.986Z,13.51
2018-04-20T03:48:46.008Z,13.42
2018-04-20T03:49:46.035Z,13.42
2018-04-20T03:50:46.062Z,13.42
2018-04-20T03:51:46.088Z,13.23
2018-04-20T03:52:46.117Z,13.42
2018-04-20T03:53:46.144Z,13.51
2018-04-20T03:54:46.168Z,13.13
2018-04-20T03:55:46.194Z,13.42
2018-04-20T03:56:46.245Z,13.42
2018-04-20T03:57:46.250Z,13.42
2018-04-20T03:58:46.277Z,13.42
2018-04-20T03:59:46.302Z,13.42
2018-04-20T04:00:46.329Z,13.42
2018-04-20T04:01:46.360Z,13.42
2018-04-20T04:02:46.383Z,13.42
2018-04-20T04:03:46.413Z,13.42
2018-04-20T04:04:46.437Z,13.42
2018-04-20T04:05:46.464Z,13.42
2018-04-20T04:06:46.528Z,13.42
2018-04-20T04:07:46.517Z,13.42
2018-04-20T04:08:46.545Z,13.42
2018-04-20T04:09:46.572Z,13.42
2018-04-20T04:10:46.667Z,13.51
2018-04-20T04:11:46.624Z,13.42
2018-04-20T04:12:46.652Z,13.42
2018-04-20T04:13:46.679Z,13.42
2018-04-20T04:14:46.706Z,13.51
2018-04-20T04:15:46.732Z,13.42
2018-04-20T04:16:46.760Z,13.32
2018-04-20T04:17:46.787Z,13.32
2018-04-20T04:18:46.815Z,13.42
2018-04-20T04:19:46.841Z,13.42
2018-04-20T04:20:46.868Z,13.51
2018-04-20T04:21:46.896Z,13.23
2018-04-20T04:22:46.931Z,13.32
2018-04-20T04:23:46.947Z,13.51
2018-04-20T04:24:46.974Z,13.42
2018-04-20T04:25:47.001Z,13.42
2018-04-20T04:26:47.045Z,13.32
2018-04-20T04:27:47.054Z,13.32
2018-04-20T04:28:47.081Z,13.51
2018-04-20T04:29:47.108Z,13.51
2018-04-20T04:30:47.135Z,13.51
2018-04-20T04:31:47.162Z,13.42
2018-04-20T04:32:47.189Z,13.23
2018-04-20T04:33:47.216Z,13.51
2018-04-20T04:34:47.244Z,13.51
2018-04-20T04:35:47.269Z,13.51
2018-04-20T04:36:47.297Z,13.42
2018-04-20T04:37:47.324Z,13.32
2018-04-20T04:38:47.351Z,13.42
2018-04-20T04:39:47.378Z,13.32
2018-04-20T04:40:47.405Z,13.32
2018-04-20T04:41:47.463Z,13.13
2018-04-20T04:42:47.493Z,13.13
2018-04-20T04:43:47.485Z,13.13
2018-04-20T04:44:47.514Z,13.32
2018-04-20T04:45:47.539Z,13.32
2018-04-20T04:46:47.567Z,13.23
2018-04-20T04:47:47.605Z,13.23
2018-04-20T04:48:47.621Z,13.23
2018-04-20T04:49:47.665Z,12.93
2018-04-20T04:50:47.674Z,13.32
2018-04-20T04:51:47.703Z,13.43
2018-04-20T04:52:47.729Z,13.33
2018-04-20T04:53:47.755Z,13.43
2018-04-20T04:54:47.782Z,13.23
2018-04-20T04:55:47.810Z,13.43
2018-04-20T04:56:47.835Z,13.23
2018-04-20T04:57:47.870Z,13.33
2018-04-20T04:58:47.890Z,13.43
2018-04-20T04:59:47.916Z,13.23
2018-04-20T05:00:47.943Z,13.62
2018-04-20T05:01:47.974Z,13.23
2018-04-20T05:02:48.038Z,13.33
2018-04-20T05:03:48.024Z,13.33
2018-04-20T05:04:48.052Z,13.52
2018-04-20T05:05:48.078Z,13.62
2018-04-20T05:06:48.120Z,13.71
2018-04-20T05:07:48.131Z,13.71
2018-04-20T05:08:48.158Z,13.62
2018-04-20T05:09:48.186Z,13.52
2018-04-20T05:10:48.213Z,13.52
2018-04-20T05:11:48.240Z,13.43
2018-04-20T05:12:48.268Z,13.52
2018-04-20T05:13:48.297Z,13.43
2018-04-20T05:14:48.321Z,13.62
2018-04-20T05:15:48.347Z,13.91
2018-04-20T05:16:48.374Z,14.01
2018-04-20T05:17:48.417Z,13.62
2018-04-20T05:18:48.439Z,13.91
2018-04-20T05:19:48.456Z,13.91
2018-04-20T05:20:48.483Z,13.91
2018-04-20T05:21:48.522Z,13.81
2018-04-20T05:22:48.537Z,13.91
2018-04-20T05:23:48.565Z,13.71
2018-04-20T05:24:48.593Z,13.81
2018-04-20T05:25:48.619Z,13.71
2018-04-20T05:26:48.655Z,13.81
2018-04-20T05:27:48.672Z,13.81
2018-04-20T05:28:48.699Z,13.43
2018-04-20T05:29:48.727Z,13.81
2018-04-20T05:30:48.759Z,13.81
2018-04-20T05:31:48.780Z,13.81
2018-04-20T05:32:48.845Z,13.91
2018-04-20T05:33:48.833Z,13.52
2018-04-20T05:34:48.863Z,13.52
2018-04-20T05:35:48.891Z,13.62
2018-04-20T05:36:48.915Z,13.71
2018-04-20T05:37:48.943Z,13.43
2018-04-20T05:38:49.006Z,13.33
2018-04-20T05:39:48.996Z,13.62
2018-04-20T05:40:49.057Z,13.81
2018-04-20T05:41:49.052Z,13.71
2018-04-20T05:42:49.079Z,13.43
2018-04-20T05:43:49.128Z,13.62
2018-04-20T05:44:49.131Z,13.52
2018-04-20T05:45:49.159Z,13.71
2018-04-20T05:46:49.205Z,13.71
2018-04-20T05:47:49.213Z,14.10
2018-04-20T05:48:49.239Z,13.71
2018-04-20T05:49:49.267Z,13.71
2018-04-20T05:50:49.293Z,13.91
2018-04-20T05:51:49.320Z,14.01
2018-04-20T05:52:49.348Z,14.01
2018-04-20T05:53:49.377Z,14.10
2018-04-20T05:54:49.408Z,14.01
2018-04-20T05:55:49.428Z,13.91
2018-04-20T05:56:49.460Z,14.01
2018-04-20T05:57:49.482Z,14.01
2018-04-20T05:58:49.510Z,14.01
2018-04-20T05:59:49.566Z,13.91
2018-04-20T06:00:49.567Z,14.01
2018-04-20T06:01:49.614Z,13.91
2018-04-20T06:02:49.618Z,13.91
2018-04-20T06:03:49.681Z,13.91
2018-04-20T06:04:49.679Z,13.91
2018-04-20T06:05:49.706Z,13.91
2018-04-20T06:06:49.728Z,14.01
2018-04-20T06:07:49.757Z,13.91
2018-04-20T06:08:49.782Z,14.01
2018-04-20T06:09:49.812Z,14.20
2018-04-20T06:10:49.836Z,13.91
2018-04-20T06:11:49.862Z,13.91
2018-04-20T06:12:49.892Z,14.01
2018-04-20T06:13:49.916Z,14.01
2018-04-20T06:14:49.945Z,14.01
2018-04-20T06:15:49.972Z,13.91
2018-04-20T06:16:49.997Z,13.91
2018-04-20T06:17:50.133Z,13.90
2018-04-20T06:18:50.051Z,13.90
2018-04-20T06:19:50.112Z,13.90
2018-04-20T06:20:50.137Z,14.00
2018-04-20T06:21:50.131Z,14.00
2018-04-20T06:22:50.161Z,13.91
2018-04-20T06:23:50.188Z,14.09
2018-04-20T06:24:50.212Z,14.00
2018-04-20T06:25:50.240Z,14.00
2018-04-20T06:26:50.281Z,14.00
2018-04-20T06:27:50.293Z,13.90
2018-04-20T06:28:50.321Z,14.00
2018-04-20T06:29:50.351Z,14.00
2018-04-20T06:30:50.376Z,14.00
2018-04-20T06:31:50.399Z,13.90
2018-04-20T06:32:50.434Z,14.19
2018-04-20T06:33:50.455Z,14.09
2018-04-20T06:34:50.483Z,13.90
2018-04-20T06:35:50.522Z,14.09
2018-04-20T06:36:50.537Z,13.90
2018-04-20T06:37:50.597Z,13.90
2018-04-20T06:38:50.589Z,14.09
2018-04-20T06:39:50.616Z,13.70
2018-04-20T06:40:50.642Z,14.09
2018-04-20T06:41:50.679Z,14.09
2018-04-20T06:42:50.696Z,13.99
2018-04-20T06:43:50.766Z,13.99
2018-04-20T06:44:50.758Z,13.90
2018-04-20T06:45:50.793Z,13.99
2018-04-20T06:48:32.905Z,13.98
2018-04-20T06:49:32.898Z,14.28
2018-04-20T06:51:25.779Z,14.28
2018-04-20T06:52:25.799Z,14.18
2018-04-20T06:54:19.563Z,14.28
2018-04-20T06:55:19.563Z,14.09
2018-04-20T06:57:39.713Z,14.18
2018-04-20T06:58:40.602Z,14.18
2018-04-20T07:00:32.707Z,14.28
2018-04-20T07:01:32.596Z,14.28
2018-04-20T07:03:25.493Z,14.29
2018-04-20T07:04:25.536Z,14.00
2018-04-20T07:06:18.428Z,14.09
2018-04-20T07:07:18.424Z,14.09
2018-04-20T07:09:11.343Z,14.19
2018-04-20T07:10:20.148Z,14.29
2018-04-20T07:12:04.302Z,14.29
2018-04-20T07:13:04.253Z,14.48
2018-04-20T07:14:57.168Z,14.29
2018-04-20T07:15:57.166Z,14.09
2018-04-20T07:17:50.080Z,14.19
2018-04-20T07:18:50.080Z,14.19
2018-04-20T07:20:43.846Z,14.19
2018-04-20T07:21:43.845Z,14.19
2018-04-20T07:24:15.886Z,14.19
2018-04-20T07:25:15.868Z,14.19
2018-04-20T07:27:08.783Z,14.09
2018-04-20T07:28:08.781Z,14.09
2018-04-20T07:29:08.808Z,14.09
2018-04-20T07:30:08.861Z,14.20
2018-04-20T07:31:08.862Z,14.19
2018-04-20T07:32:08.887Z,14.19
2018-04-20T07:33:08.915Z,14.29
2018-04-20T07:34:08.973Z,14.39
2018-04-20T07:35:08.968Z,14.19
2018-04-20T07:36:09.006Z,14.39
2018-04-20T07:37:09.028Z,14.20
2018-04-20T07:38:09.053Z,14.29
2018-04-20T07:39:09.084Z,14.20
2018-04-20T07:40:09.104Z,14.20
2018-04-20T07:41:09.131Z,14.10
2018-04-20T07:42:09.155Z,14.10
2018-04-20T07:43:09.186Z,14.20
2018-04-20T07:44:09.841Z,14.01
2018-04-20T07:45:09.239Z,14.01
2018-04-20T07:46:09.265Z,14.01
2018-04-20T07:47:09.292Z,14.10
2018-04-20T07:48:09.317Z,14.39
2018-04-20T07:49:09.345Z,14.10
2018-04-20T07:50:09.375Z,14.49
2018-04-20T07:51:09.397Z,14.10
2018-04-20T07:52:09.433Z,14.49
2018-04-20T07:53:09.453Z,14.39
2018-04-20T07:54:09.492Z,14.39
2018-04-20T07:55:09.505Z,14.39
2018-04-20T07:56:09.532Z,14.49
2018-04-20T07:57:09.561Z,14.40
2018-04-20T07:58:09.586Z,14.50
2018-04-20T07:59:09.617Z,14.10
2018-04-20T08:00:09.641Z,14.20
2018-04-20T08:01:09.667Z,14.40
2018-04-20T08:02:09.700Z,14.39
2018-04-20T08:03:09.730Z,14.30
2018-04-20T08:04:09.748Z,14.30
2018-04-20T08:05:09.775Z,14.40
2018-04-20T08:06:09.801Z,14.11
2018-04-20T08:07:09.828Z,14.59
2018-04-20T08:08:09.856Z,14.59
2018-04-20T08:09:09.883Z,14.40
2018-04-20T08:10:09.911Z,14.40
2018-04-20T08:11:09.956Z,14.40
2018-04-20T08:12:09.963Z,14.11
2018-04-20T08:13:17.099Z,14.01
2018-04-20T08:15:02.909Z,14.01
2018-04-20T08:16:02.907Z,14.20
2018-04-20T08:17:55.858Z,14.40
2018-04-20T08:18:55.839Z,14.30
2018-04-20T08:21:03.249Z,14.20
2018-04-20T08:22:03.201Z,14.20
2018-04-20T08:23:56.152Z,14.11
2018-04-20T08:24:56.122Z,14.11
2018-04-20T08:26:49.017Z,14.11
2018-04-20T08:27:49.036Z,14.20
2018-04-20T08:29:41.990Z,14.20
2018-04-20T08:30:41.945Z,14.20
2018-04-20T08:32:35.956Z,14.22
2018-04-20T08:33:35.713Z,14.69
2018-04-20T08:35:55.838Z,14.22
2018-04-20T08:36:55.830Z,14.20
2018-04-20T08:39:27.860Z,14.12
2018-04-20T08:40:27.864Z,14.22
2018-04-20T08:42:20.783Z,14.22
2018-04-20T08:43:20.773Z,14.22
2018-04-20T08:45:13.698Z,14.12
2018-04-20T08:46:13.694Z,14.22
2018-04-20T08:48:06.608Z,14.22
2018-04-20T08:49:06.606Z,14.02
2018-04-20T08:51:00.381Z,14.12
2018-04-20T08:52:00.372Z,14.31
2018-04-20T08:54:07.741Z,14.22
2018-04-20T08:55:07.741Z,14.22
2018-04-20T08:57:00.668Z,14.22
2018-04-20T08:58:00.662Z,14.22
2018-04-20T08:59:53.556Z,14.22
2018-04-20T09:00:53.571Z,14.22
2018-04-20T09:02:46.485Z,14.02
2018-04-20T09:03:46.485Z,14.22
2018-04-20T09:05:39.403Z,14.03
2018-04-20T09:06:39.401Z,14.03
2018-04-20T09:08:59.959Z,14.70
2018-04-20T09:09:59.532Z,14.41
2018-04-20T09:11:52.458Z,14.03
2018-04-20T09:12:52.440Z,14.70
2018-04-20T09:14:45.349Z,14.70
2018-04-20T09:15:45.363Z,14.22
2018-04-20T09:17:38.273Z,14.61
2018-04-20T09:18:38.270Z,14.03
2018-04-20T09:20:31.186Z,14.41
2018-04-20T09:21:31.212Z,14.32
2018-04-20T09:23:24.100Z,14.51
2018-04-20T09:24:24.147Z,14.32
2018-04-20T09:26:17.017Z,14.51
2018-04-20T09:27:17.021Z,14.12
2018-04-20T09:29:09.911Z,14.51
2018-04-20T09:30:09.932Z,14.41
2018-04-20T09:32:03.697Z,14.41
2018-04-20T09:33:03.696Z,14.51
2018-04-20T09:35:11.064Z,14.61
2018-04-20T09:36:11.077Z,14.41
2018-04-20T09:38:18.622Z,14.41
2018-04-20T09:39:18.446Z,14.61
2018-04-20T09:41:11.369Z,14.32
2018-04-20T09:42:11.364Z,14.41
2018-04-20T09:44:04.279Z,14.32
2018-04-20T09:45:04.278Z,14.31
2018-04-20T09:46:57.193Z,14.32
2018-04-20T09:47:57.191Z,14.32
2018-04-20T09:49:50.151Z,14.32
2018-04-20T09:50:50.108Z,14.32
2018-04-20T09:52:43.025Z,14.31
2018-04-20T09:53:43.027Z,14.22
2018-04-20T09:55:35.918Z,14.22
2018-04-20T09:56:35.938Z,14.32
2018-04-20T09:58:28.909Z,14.31
2018-04-20T09:59:28.898Z,14.22
2018-04-20T10:01:21.815Z,14.31
2018-04-20T10:02:21.814Z,14.22
2018-04-20T10:04:15.587Z,14.50
2018-04-20T10:05:15.586Z,14.51
2018-04-20T10:07:22.956Z,14.51
2018-04-20T10:08:22.957Z,14.32
2018-04-20T10:10:15.871Z,14.31
2018-04-20T10:11:15.869Z,14.22
2018-04-20T10:13:08.792Z,14.32
2018-04-20T10:14:08.788Z,14.51
2018-04-20T10:16:28.914Z,14.32
2018-04-20T10:17:28.910Z,14.41
2018-04-20T10:19:21.844Z,14.32
2018-04-20T10:20:21.832Z,14.41
2018-04-20T10:22:15.598Z,14.32
2018-04-20T10:23:15.601Z,14.51
2018-04-20T10:25:10.214Z,14.51
2018-04-20T10:26:10.209Z,14.32
2018-04-20T10:28:03.128Z,14.32
2018-04-20T10:29:03.150Z,14.32
2018-04-20T10:30:56.042Z,14.51
2018-04-20T10:31:56.041Z,14.51
2018-04-20T10:33:48.973Z,14.51
2018-04-20T10:34:48.958Z,14.51
2018-04-20T10:36:42.702Z,14.41
2018-04-20T10:37:42.721Z,14.51
2018-04-20T10:40:02.845Z,14.51
2018-04-20T10:41:02.856Z,14.32
2018-04-20T10:43:34.888Z,14.32
2018-04-20T10:44:34.902Z,14.22
2018-04-20T10:46:29.497Z,14.70
2018-04-20T10:47:29.511Z,14.51
2018-04-20T10:49:49.613Z,14.61
2018-04-20T10:50:49.633Z,14.41
2018-04-20T10:53:09.756Z,14.32
2018-04-20T10:54:09.756Z,14.51
2018-04-20T10:56:29.918Z,14.61
2018-04-20T10:57:29.911Z,14.61
2018-04-20T10:59:24.510Z,14.70
2018-04-20T11:00:24.532Z,14.61
2018-04-20T11:02:30.245Z,14.51
2018-04-20T11:03:30.254Z,14.51
2018-04-20T11:05:23.121Z,14.51
2018-04-20T11:06:23.123Z,14.51
2018-04-20T11:08:17.734Z,14.61
2018-04-20T11:09:17.737Z,14.61
2018-04-20T11:11:23.459Z,14.61
2018-04-20T11:12:23.406Z,14.61
2018-04-20T11:14:16.320Z,14.70
2018-04-20T11:15:16.321Z,14.90
2018-04-20T11:17:22.008Z,15.19
2018-04-20T11:18:21.989Z,15.19
2018-04-20T11:20:14.916Z,15.19
2018-04-20T11:21:14.907Z,15.19
2018-04-20T11:23:09.520Z,14.90
2018-04-20T11:24:09.519Z,15.19
2018-04-20T11:26:15.191Z,14.99
2018-04-20T11:27:15.190Z,15.28
2018-04-20T11:29:08.126Z,14.99
2018-04-20T11:30:08.106Z,15.09
2018-04-20T11:32:13.764Z,14.99
2018-04-20T11:33:13.777Z,15.19
2018-04-20T11:35:06.695Z,15.09
2018-04-20T11:36:06.694Z,15.19
2018-04-20T11:38:01.714Z,15.09
2018-04-20T11:39:01.306Z,15.09
2018-04-20T11:41:06.978Z,14.90
2018-04-20T11:42:06.981Z,14.90
2018-04-20T11:44:00.743Z,14.90
2018-04-20T11:45:00.742Z,14.80
2018-04-20T11:46:55.363Z,14.90
2018-04-20T11:47:55.363Z,14.90
2018-04-20T11:50:01.022Z,14.90
2018-04-20T11:51:01.036Z,15.19
2018-04-20T11:52:53.955Z,15.28
2018-04-20T11:53:54.023Z,14.99
2018-04-20T11:55:48.567Z,15.09
2018-04-20T11:56:48.566Z,14.99
2018-04-20T11:58:54.237Z,14.90
2018-04-20T11:59:54.236Z,14.99
2018-04-20T12:01:47.154Z,15.28
2018-04-20T12:02:47.153Z,15.09
2018-04-20T12:04:52.826Z,15.28
2018-04-20T12:05:52.824Z,15.19
2018-04-20T12:07:45.721Z,14.99
2018-04-20T12:08:45.742Z,14.99
2018-04-20T12:10:40.354Z,14.99
2018-04-20T12:11:40.353Z,14.99
2018-04-20T12:13:46.042Z,14.99
2018-04-20T12:14:46.025Z,14.99
2018-04-20T12:16:38.943Z,15.19
2018-04-20T12:17:38.943Z,15.19
2018-04-20T12:19:33.557Z,15.09
2018-04-20T12:20:33.556Z,15.19
2018-04-20T12:22:26.450Z,15.28
2018-04-20T12:23:26.471Z,15.38
2018-04-20T12:25:19.388Z,15.38
2018-04-20T12:26:19.388Z,15.28
2018-04-20T12:28:12.322Z,15.28
2018-04-20T12:29:12.304Z,15.38
2018-04-20T12:31:05.220Z,15.48
2018-04-20T12:32:05.220Z,15.19
2018-04-20T12:33:58.126Z,14.99
2018-04-20T12:34:58.134Z,14.99
2018-04-20T12:36:51.029Z,15.19
2018-04-20T12:37:51.049Z,15.28
2018-04-20T12:39:43.952Z,15.09
2018-04-20T12:40:43.964Z,15.09
2018-04-20T12:42:36.967Z,15.09
2018-04-20T12:43:36.879Z,15.09
2018-04-20T12:45:29.830Z,15.19
2018-04-20T12:46:29.795Z,15.09
2018-04-20T12:48:22.711Z,15.09
2018-04-20T12:49:22.711Z,15.38
2018-04-20T12:51:15.654Z,15.38
2018-04-20T12:52:15.625Z,15.38
2018-04-20T12:54:08.757Z,15.38
2018-04-20T12:55:08.773Z,15.28
2018-04-20T12:57:14.798Z,15.38
2018-04-20T12:58:14.441Z,15.19
2018-04-20T13:00:07.360Z,15.09
2018-04-20T13:01:07.363Z,15.09
2018-04-20T13:03:01.986Z,15.28
2018-04-20T13:04:01.972Z,15.19
2018-04-20T13:06:07.622Z,15.28
2018-04-20T13:07:07.642Z,15.19
2018-04-20T13:09:00.567Z,15.28
2018-04-20T13:10:00.599Z,15.28
2018-04-20T13:12:06.209Z,15.28
2018-04-20T13:13:06.229Z,15.38
2018-04-20T13:14:59.149Z,15.18
2018-04-20T13:15:59.153Z,15.19
2018-04-20T13:17:53.760Z,15.19
2018-04-20T13:18:53.759Z,15.28
2018-04-20T13:20:59.466Z,15.19
2018-04-20T13:21:59.458Z,15.38
2018-04-20T13:23:52.374Z,15.09
2018-04-20T13:24:52.373Z,14.99
2018-04-20T13:26:46.137Z,14.99
2018-04-20T13:27:46.139Z,15.09
2018-04-20T13:29:51.786Z,15.09
2018-04-20T13:30:51.806Z,14.99
2018-04-20T13:32:44.723Z,15.09
2018-04-20T13:33:44.767Z,15.28
2018-04-20T13:35:39.333Z,15.19
2018-04-20T13:36:39.352Z,15.19
2018-04-20T13:38:45.047Z,15.28
2018-04-20T13:39:45.038Z,15.37
2018-04-20T13:41:37.958Z,15.28
2018-04-20T13:42:37.963Z,15.58
2018-04-20T13:44:32.572Z,15.28
2018-04-20T13:45:32.570Z,15.48
2018-04-20T13:47:38.242Z,15.28
2018-04-20T13:48:38.267Z,15.38
2018-04-20T13:50:31.162Z,15.48
2018-04-20T13:51:31.157Z,15.67
2018-04-20T13:53:25.771Z,15.66
2018-04-20T13:54:25.770Z,15.67
2018-04-20T13:56:31.441Z,15.86
2018-04-20T13:57:31.448Z,15.76
2018-04-20T13:59:24.358Z,15.76
2018-04-20T14:00:24.356Z,15.77
2018-04-20T14:02:30.029Z,15.76
2018-04-20T14:03:30.028Z,16.05
2018-04-20T14:05:22.944Z,15.76
2018-04-20T14:06:22.943Z,15.76
2018-04-20T14:08:17.944Z,15.95
2018-04-20T14:09:17.557Z,15.86
2018-04-20T14:11:23.228Z,15.86
2018-04-20T14:12:23.230Z,15.86
2018-04-20T14:14:16.144Z,15.95
2018-04-20T14:15:16.143Z,15.86
2018-04-20T14:17:21.814Z,15.95
2018-04-20T14:18:21.814Z,15.86
2018-04-20T14:20:14.732Z,15.86
2018-04-20T14:21:14.731Z,15.47
2018-04-20T14:23:09.345Z,16.05
2018-04-20T14:24:09.343Z,15.86
2018-04-20T14:26:15.024Z,15.76
2018-04-20T14:27:15.013Z,15.95
2018-04-20T14:29:07.931Z,15.95
2018-04-20T14:30:07.946Z,15.95
2018-04-20T14:32:13.629Z,15.76
2018-04-20T14:33:13.627Z,15.76
2018-04-20T14:35:19.300Z,15.66
2018-04-20T14:36:19.298Z,15.95
2018-04-20T14:38:12.194Z,15.86
2018-04-20T14:39:12.216Z,15.95
2018-04-20T14:41:17.931Z,15.95
2018-04-20T14:42:17.885Z,15.86
2018-04-20T14:44:10.895Z,15.95
2018-04-20T14:45:10.806Z,15.95
2018-04-20T14:47:05.415Z,15.56
2018-04-20T14:48:05.414Z,15.66
2018-04-20T14:50:11.073Z,15.86
2018-04-20T14:51:11.086Z,15.56
2018-04-20T14:53:04.003Z,15.86
2018-04-20T14:54:04.003Z,15.86
2018-04-20T14:56:09.732Z,15.95
2018-04-20T14:57:09.673Z,15.76
2018-04-20T14:59:02.628Z,15.86
2018-04-20T15:00:02.635Z,15.95
2018-04-20T15:01:55.544Z,15.76
2018-04-20T15:02:55.576Z,15.76
2018-04-20T15:05:01.215Z,15.76
2018-04-20T15:06:01.245Z,15.86
2018-04-20T15:07:54.133Z,15.76
2018-04-20T15:08:54.132Z,15.76
2018-04-20T15:10:48.722Z,15.76
2018-04-20T15:11:48.743Z,15.95
2018-04-20T15:13:54.414Z,15.86
2018-04-20T15:14:54.415Z,15.76
2018-04-20T15:16:47.332Z,15.76
2018-04-20T15:17:47.330Z,15.76
2018-04-20T15:19:41.944Z,15.66
2018-04-20T15:20:41.949Z,15.86
2018-04-20T15:22:34.864Z,15.76
2018-04-20T15:23:34.859Z,15.76
2018-04-20T15:25:27.779Z,15.76
2018-04-20T15:26:27.774Z,15.66
2018-04-20T15:28:20.670Z,15.66
2018-04-20T15:29:20.689Z,15.56